Time;durP1;ratioP1;P1;durP2;ratioP2;P2;SDS_P1;SDS_P2;PMS_P1;PMS_P2;Temp;Humidity;BMP_temperature;BMP_pressure;BME280_temperature;BME280_humidity;BME280_pressure;Samples;Min_cycle;Max_cycle;Signal;HPM_P1;HPM_P2
2021/11/17 02:26:57;;;;;;;14.65;8.05;;;4.00;99.90;;;;;;4991374;28;20043;-72
2021/11/17 02:29:44;;;;;;;14.07;7.78;;;4.10;99.90;;;;;;4993544;28;20084;-73
2021/11/17 02:32:23;;;;;;;14.65;8.82;;;4.10;99.90;;;;;;4977777;28;20045;-72
2021/11/17 02:35:26;;;;;;;14.57;8.50;;;4.10;99.90;;;;;;4977400;28;20486;-72
2021/11/17 02:38:15;;;;;;;13.85;7.53;;;4.10;99.90;;;;;;4978619;28;20050;-73
2021/11/17 02:41:06;;;;;;;;;;;4.10;99.90;;;;;;4995205;28;20046;-73
2021/11/17 02:44:10;;;;;;;13.25;8.48;;;4.10;99.90;;;;;;4993982;28;20032;-72
2021/11/17 02:46:48;;;;;;;14.57;7.97;;;4.10;99.90;;;;;;4993471;28;20066;-72
2021/11/17 02:49:44;;;;;;;14.50;8.45;;;4.10;99.90;;;;;;4993338;28;20051;-72
2021/11/17 02:52:35;;;;;;;16.05;9.13;;;4.10;99.90;;;;;;4993184;28;20116;-73
2021/11/17 02:55:25;;;;;;;14.38;9.15;;;4.10;99.90;;;;;;4977707;28;20618;-72
2021/11/17 02:57:57;;;;;;;13.30;7.55;;;4.10;99.90;;;;;;4993047;28;20047;-72
2021/11/17 03:01:01;;;;;;;13.50;7.87;;;4.10;99.90;;;;;;4993040;28;20057;-72
2021/11/17 03:03:58;;;;;;;13.07;7.88;;;4.10;99.90;;;;;;4993548;28;20282;-73
2021/11/17 03:06:46;;;;;;;14.38;8.63;;;4.10;99.90;;;;;;4993495;28;20134;-72
2021/11/17 03:09:24;;;;;;;14.73;8.88;;;4.10;99.90;;;;;;4994365;28;20528;-72
2021/11/17 03:12:04;;;;;;;14.77;8.93;;;4.10;99.90;;;;;;4993255;28;20505;-73
2021/11/17 03:14:47;;;;;;;15.25;8.93;;;4.10;99.90;;;;;;4993257;28;20078;-72
2021/11/17 03:17:38;;;;;;;15.10;9.07;;;4.10;99.90;;;;;;4994323;28;20501;-72
2021/11/17 03:20:12;;;;;;;14.90;8.88;;;4.10;99.90;;;;;;4993167;28;20569;-72
2021/11/17 03:22:54;;;;;;;15.02;9.10;;;4.10;99.90;;;;;;4994242;28;20469;-72
2021/11/17 03:25:50;;;;;;;13.23;8.50;;;4.10;99.90;;;;;;4994868;28;20477;-72
2021/11/17 03:28:56;;;;;;;13.93;8.90;;;4.10;99.90;;;;;;4943474;28;20190;-72
2021/11/17 03:31:44;;;;;;;14.60;9.23;;;4.10;99.90;;;;;;4992979;28;20472;-72
2021/11/17 03:34:28;;;;;;;12.82;7.40;;;4.10;99.90;;;;;;4962002;28;20074;-73
2021/11/17 03:37:27;;;;;;;16.05;9.10;;;4.10;99.90;;;;;;4977517;28;20042;-72
2021/11/17 03:40:17;;;;;;;16.65;8.90;;;4.10;99.90;;;;;;4977029;28;20049;-72
2021/11/17 03:43:07;;;;;;;13.88;9.02;;;4.10;99.90;;;;;;4993850;28;20042;-73
2021/11/17 03:45:58;;;;;;;17.27;7.90;;;4.10;99.90;;;;;;4992884;28;20038;-72
2021/11/17 03:48:42;;;;;;;13.10;8.32;;;4.10;99.90;;;;;;4978452;28;20141;-73
2021/11/17 03:51:36;;;;;;;13.27;7.68;;;4.10;99.90;;;;;;4977313;28;20136;-72
2021/11/17 03:54:16;;;;;;;13.63;8.48;;;4.10;99.90;;;;;;4979116;28;20054;-72
2021/11/17 03:57:07;;;;;;;11.95;7.32;;;4.10;99.90;;;;;;4977116;28;20052;-72
2021/11/17 04:00:00;;;;;;;11.77;6.78;;;4.10;99.90;;;;;;4977138;28;20489;-72
2021/11/17 04:02:39;;;;;;;12.07;7.53;;;4.10;99.90;;;;;;4993461;28;20067;-73
2021/11/17 04:05:10;;;;;;;11.88;7.30;;;4.10;99.90;;;;;;4992428;28;20137;-73
2021/11/17 04:08:07;;;;;;;19.58;11.27;;;4.10;99.90;;;;;;4992211;28;20133;-73
2021/11/17 04:10:45;;;;;;;17.23;11.40;;;4.10;99.90;;;;;;4993560;28;20129;-73
2021/11/17 04:13:41;;;;;;;211.02;103.97;;;4.10;99.90;;;;;;4992017;28;20509;-73
2021/11/17 04:16:42;;;;;;;50.55;31.83;;;4.20;99.90;;;;;;4992132;28;20128;-72
2021/11/17 04:19:51;;;;;;;17.27;10.95;;;4.20;99.90;;;;;;4988840;28;20057;-72
2021/11/17 04:22:42;;;;;;;12.40;7.75;;;4.20;99.90;;;;;;5000858;28;20046;-73
2021/11/17 04:25:33;;;;;;;12.82;8.63;;;4.20;99.90;;;;;;4989910;28;20044;-72
2021/11/17 04:28:35;;;;;;;14.23;7.97;;;4.10;99.90;;;;;;4975790;28;20039;-72
2021/11/17 04:31:13;;;;;;;12.50;7.75;;;4.20;99.90;;;;;;5000138;28;20555;-72
2021/11/17 04:33:44;;;;;;;12.82;8.25;;;4.10;99.90;;;;;;4995312;28;20052;-72
2021/11/17 04:36:30;;;;;;;12.63;8.18;;;4.10;99.90;;;;;;5005281;28;20045;-73
2021/11/17 04:39:18;;;;;;;13.23;7.57;;;4.10;99.90;;;;;;4990984;28;20534;-73
2021/11/17 04:42:11;;;;;;;12.43;7.13;;;4.10;99.90;;;;;;4991066;28;20129;-73
2021/11/17 04:45:01;;;;;;;11.95;7.30;;;4.10;99.90;;;;;;4994162;28;20121;-73
2021/11/17 04:48:07;;;;;;;13.13;8.07;;;4.10;99.90;;;;;;4989320;28;20134;-73
2021/11/17 04:51:20;;;;;;;12.65;7.40;;;4.30;99.90;;;;;;4987528;28;20504;-73
2021/11/17 04:54:02;;;;;;;12.38;7.03;;;4.20;99.90;;;;;;4983967;28;20073;-72
2021/11/17 04:56:36;;;;;;;11.73;7.25;;;4.20;99.90;;;;;;4994509;28;20098;-73
2021/11/17 04:59:16;;;;;;;;;;;4.20;99.90;;;;;;4992244;28;20069;-73
2021/11/17 05:01:55;;;;;;;12.73;7.10;;;4.20;99.90;;;;;;5010171;28;20017;-73
2021/11/17 05:04:43;;;;;;;12.77;7.70;;;4.20;99.90;;;;;;4994562;28;20500;-73
2021/11/17 05:07:24;;;;;;;13.38;7.10;;;4.20;99.90;;;;;;4994253;28;20475;-72
2021/11/17 05:10:02;;;;;;;13.43;8.05;;;4.30;99.90;;;;;;5011176;28;20133;-72
2021/11/17 05:12:52;;;;;;;10.20;7.50;;;4.30;99.90;;;;;;5010282;28;20471;-73
2021/11/17 05:16:09;;;;;;;12.40;7.40;;;4.30;99.90;;;;;;4996001;28;20073;-73
2021/11/17 05:18:48;;;;;;;11.98;8.30;;;4.30;99.90;;;;;;4967371;28;20137;-73
2021/11/17 05:21:45;;;;;;;12.15;7.65;;;4.30;99.90;;;;;;4993871;28;20129;-72
2021/11/17 05:24:46;;;;;;;12.73;8.00;;;4.30;99.90;;;;;;5009835;28;20481;-72
2021/11/17 05:27:23;;;;;;;13.02;7.55;;;4.30;99.90;;;;;;5005608;28;20137;-73
2021/11/17 05:30:09;;;;;;;11.80;7.03;;;4.30;99.90;;;;;;5009835;28;20572;-72
2021/11/17 05:32:59;;;;;;;11.02;7.53;;;4.20;99.90;;;;;;4979908;28;20133;-72
2021/11/17 05:36:04;;;;;;;12.07;7.50;;;4.20;99.90;;;;;;5013126;28;20112;-73
2021/11/17 05:38:59;;;;;;;12.45;7.53;;;4.20;99.90;;;;;;4995026;28;20128;-72
2021/11/17 05:41:58;;;;;;;9.70;5.90;;;4.20;99.90;;;;;;4979362;28;20484;-72
2021/11/17 05:44:48;;;;;;;13.35;8.13;;;4.10;99.90;;;;;;4995258;28;20515;-72
2021/11/17 05:47:26;;;;;;;14.23;8.48;;;4.10;99.90;;;;;;5010094;28;20042;-72
2021/11/17 05:50:04;;;;;;;13.32;8.70;;;4.10;99.90;;;;;;5009901;28;20140;-71
2021/11/17 05:52:42;;;;;;;14.57;8.57;;;4.10;99.90;;;;;;5009591;28;20092;-72
2021/11/17 05:55:17;;;;;;;18.15;10.43;;;4.00;99.90;;;;;;4994326;28;20137;-71
2021/11/17 05:58:29;;;;;;;18.60;10.48;;;4.10;99.90;;;;;;5005910;28;20042;-72
2021/11/17 06:01:03;;;;;;;18.00;10.45;;;4.10;99.90;;;;;;4947584;28;20237;-71
2021/11/17 06:06:36;;;;;;;16.13;9.65;;;4.10;99.90;;;;;;4993490;28;20523;-73
2021/11/17 06:09:05;;;;;;;18.15;10.43;;;4.10;99.90;;;;;;4974744;28;20138;-72
2021/11/17 06:11:51;;;;;;;17.73;10.35;;;4.10;99.90;;;;;;4973921;28;20053;-72
2021/11/17 06:14:30;;;;;;;19.02;9.93;;;4.10;99.90;;;;;;4974910;28;20039;-72
2021/11/17 06:17:09;;;;;;;20.10;11.90;;;4.10;99.90;;;;;;4993113;28;20153;-72
2021/11/17 06:19:42;;;;;;;18.63;11.05;;;4.10;99.90;;;;;;4993173;28;20473;-73
2021/11/17 06:22:18;;;;;;;19.35;11.82;;;4.10;99.90;;;;;;4992643;28;20134;-72
2021/11/17 06:24:51;;;;;;;18.35;10.32;;;4.10;99.90;;;;;;4994393;28;20113;-72
2021/11/17 06:27:27;;;;;;;17.55;9.93;;;4.10;99.90;;;;;;4993240;28;20045;-72
2021/11/17 06:29:59;;;;;;;18.75;11.38;;;4.10;99.90;;;;;;4994118;28;20117;-72
2021/11/17 06:32:31;;;;;;;19.08;11.68;;;4.10;99.90;;;;;;4993055;28;20078;-73
2021/11/17 06:35:04;;;;;;;20.48;11.52;;;4.10;99.90;;;;;;4992834;28;20153;-72
2021/11/17 06:37:37;;;;;;;21.38;11.20;;;4.10;99.90;;;;;;4992902;28;20056;-72
2021/11/17 06:40:13;;;;;;;19.58;10.77;;;4.10;99.90;;;;;;4994351;28;20409;-72
2021/11/17 06:42:52;;;;;;;20.17;11.20;;;4.10;99.90;;;;;;4992644;28;20133;-72
2021/11/17 06:45:23;;;;;;;;;;;4.10;99.90;;;;;;4977144;28;20108;-72
2021/11/17 06:47:50;;;;;;;20.90;10.65;;;4.10;99.90;;;;;;4992671;28;19957;-72
2021/11/17 06:50:19;;;;;;;19.45;10.80;;;4.00;99.90;;;;;;4993895;28;20077;-72
2021/11/17 06:52:46;;;;;;;20.45;11.35;;;4.00;99.90;;;;;;4993633;28;20588;-72
2021/11/17 06:55:13;;;;;;;19.30;10.75;;;4.00;99.90;;;;;;4992648;28;20117;-72
2021/11/17 06:57:46;;;;;;;16.38;10.45;;;4.00;99.90;;;;;;4992465;28;20031;-73
2021/11/17 07:00:26;;;;;;;16.63;8.90;;;4.00;99.90;;;;;;5513493;23;20086;-72
2021/11/17 07:02:58;;;;;;;19.40;9.60;;;4.00;99.90;;;;;;5003487;28;20038;-72
2021/11/17 07:05:30;;;;;;;17.75;8.95;;;4.00;99.90;;;;;;5013412;28;20076;-72
2021/11/17 07:07:59;;;;;;;18.52;9.48;;;4.00;99.90;;;;;;5012689;28;20129;-72
2021/11/17 07:10:34;;;;;;;16.42;8.35;;;4.00;99.90;;;;;;4984764;28;20061;-72
2021/11/17 07:13:07;;;;;;;20.88;9.57;;;4.00;99.90;;;;;;4974206;28;20049;-72
2021/11/17 07:15:41;;;;;;;17.67;9.77;;;4.00;99.90;;;;;;4964264;28;20054;-72
2021/11/17 07:18:13;;;;;;;20.60;10.10;;;4.00;99.90;;;;;;4974211;28;20059;-72
2021/11/17 07:20:46;;;;;;;18.80;9.60;;;4.10;99.90;;;;;;4984647;28;20038;-73
2021/11/17 07:23:15;;;;;;;17.70;9.55;;;4.10;99.90;;;;;;4966998;28;20457;-72
2021/11/17 07:25:47;;;;;;;16.05;9.32;;;4.10;99.90;;;;;;4966815;28;20046;-72
2021/11/17 07:28:14;;;;;;;16.33;9.63;;;4.10;99.90;;;;;;4966095;28;20105;-72
2021/11/17 07:30:46;;;;;;;22.17;10.63;;;4.10;99.90;;;;;;4967732;28;20039;-72
2021/11/17 07:33:18;;;;;;;19.65;10.70;;;4.10;99.90;;;;;;4967286;28;20053;-72
2021/11/17 07:35:53;;;;;;;18.85;9.68;;;4.10;99.90;;;;;;4965313;28;20137;-72
2021/11/17 07:38:23;;;;;;;16.52;9.38;;;4.20;99.90;;;;;;4966255;28;20121;-72
2021/11/17 07:40:55;;;;;;;13.38;8.23;;;4.20;99.90;;;;;;4967277;28;20034;-73
2021/11/17 07:43:27;;;;;;;17.58;9.68;;;4.10;99.90;;;;;;4968161;28;20137;-73
2021/11/17 07:45:59;;;;;;;19.98;10.60;;;4.10;99.90;;;;;;4974223;28;20490;-73
2021/11/17 07:48:32;;;;;;;17.33;9.07;;;4.10;99.90;;;;;;4966973;28;20724;-73
2021/11/17 07:51:04;;;;;;;17.08;10.07;;;4.10;99.90;;;;;;4998287;28;20042;-73
2021/11/17 07:53:36;;;;;;;19.33;9.57;;;4.10;99.90;;;;;;4967094;28;20038;-73
2021/11/17 07:56:04;;;;;;;17.02;9.63;;;4.10;99.90;;;;;;4985086;28;20141;-73
2021/11/17 07:58:42;;;;;;;17.75;9.60;;;4.10;99.90;;;;;;4969261;28;20051;-73
2021/11/17 08:01:11;;;;;;;16.83;9.70;;;4.10;99.90;;;;;;4983288;28;20121;-71
2021/11/17 08:03:45;;;;;;;16.23;9.90;;;4.10;99.90;;;;;;4966690;28;20050;-73
2021/11/17 08:06:15;;;;;;;18.42;9.57;;;4.10;99.90;;;;;;4974252;28;20062;-72
2021/11/17 08:08:47;;;;;;;17.40;9.13;;;4.10;99.90;;;;;;4962824;28;20050;-73
2021/11/17 08:11:20;;;;;;;16.02;8.73;;;4.10;99.90;;;;;;4961422;28;20122;-73
2021/11/17 08:13:47;;;;;;;16.35;9.25;;;4.10;99.90;;;;;;4955430;28;20149;-72
2021/11/17 08:16:18;;;;;;;17.30;8.98;;;4.10;99.90;;;;;;4955814;28;20077;-72
2021/11/17 08:18:45;;;;;;;15.70;8.40;;;4.20;99.90;;;;;;4972504;28;20129;-73
2021/11/17 08:21:17;;;;;;;15.18;8.85;;;4.20;99.90;;;;;;4954390;28;20055;-72
2021/11/17 08:23:49;;;;;;;13.25;7.88;;;4.20;99.90;;;;;;4985139;28;20047;-72
2021/11/17 08:26:22;;;;;;;15.98;8.63;;;4.20;99.90;;;;;;4990974;28;20137;-72
2021/11/17 08:28:50;;;;;;;14.38;8.57;;;4.30;99.90;;;;;;4974416;28;20096;-72
2021/11/17 08:31:24;;;;;;;16.33;8.65;;;4.30;99.90;;;;;;4974104;28;20039;-72
2021/11/17 08:33:56;;;;;;;13.77;8.02;;;4.30;99.90;;;;;;4990720;28;20042;-72
2021/11/17 08:36:29;;;;;;;14.23;8.02;;;4.30;99.90;;;;;;4990655;28;20683;-72
2021/11/17 08:39:01;;;;;;;13.93;8.60;;;4.40;99.90;;;;;;4974144;28;20043;-72
2021/11/17 08:41:33;;;;;;;13.23;7.80;;;4.40;99.90;;;;;;4974295;28;20459;-73
2021/11/17 08:43:59;;;;;;;12.13;7.95;;;4.40;99.90;;;;;;4987939;28;20559;-73
2021/11/17 08:46:27;;;;;;;12.15;7.53;;;4.40;99.90;;;;;;4970680;28;20125;-72
2021/11/17 08:49:00;;;;;;;11.48;7.30;;;4.50;99.90;;;;;;4969218;28;20034;-73
2021/11/17 08:51:32;;;;;;;15.38;9.15;;;4.50;99.90;;;;;;4990323;28;20133;-72
2021/11/17 08:54:05;;;;;;;12.40;7.40;;;4.40;99.90;;;;;;4957198;28;20039;-72
2021/11/17 08:56:37;;;;;;;11.98;7.80;;;4.40;99.90;;;;;;4958112;28;20049;-73
2021/11/17 08:59:08;;;;;;;13.18;8.07;;;4.40;99.90;;;;;;4992465;28;20088;-72
2021/11/17 09:01:35;;;;;;;15.88;8.90;;;4.40;99.90;;;;;;4974318;28;20488;-73
2021/11/17 09:04:07;;;;;;;12.30;7.93;;;4.50;99.90;;;;;;4958771;28;20042;-73
2021/11/17 09:06:36;;;;;;;13.07;7.45;;;4.50;99.90;;;;;;4990540;28;20137;-73
2021/11/17 09:09:06;;;;;;;13.18;7.53;;;4.50;99.90;;;;;;4958263;28;20054;-72
2021/11/17 09:11:40;;;;;;;;;;;4.50;99.90;;;;;;4992193;28;20052;-73
2021/11/17 09:14:12;;;;;;;11.80;7.57;;;4.60;99.90;;;;;;4973997;28;19921;-72
2021/11/17 09:16:44;;;;;;;10.43;6.97;;;4.60;99.90;;;;;;4973532;28;20129;-73
2021/11/17 09:19:11;;;;;;;12.43;7.13;;;4.60;99.90;;;;;;4957607;28;20623;-72
2021/11/17 09:21:41;;;;;;;11.23;6.93;;;4.60;99.90;;;;;;5007041;28;20132;-73
2021/11/17 09:24:10;;;;;;;10.32;6.63;;;4.60;99.90;;;;;;4991666;28;20039;-72
2021/11/17 09:26:43;;;;;;;11.98;7.75;;;4.60;99.90;;;;;;5005980;28;20109;-72
2021/11/17 09:29:10;;;;;;;10.82;6.32;;;4.60;99.90;;;;;;4973526;28;20153;-73
2021/11/17 09:31:45;;;;;;;9.75;6.35;;;4.60;99.90;;;;;;5006988;28;20137;-73
2021/11/17 09:34:13;;;;;;;11.50;6.70;;;4.60;99.90;;;;;;4974552;28;20081;-72
2021/11/17 09:36:40;;;;;;;8.98;5.93;;;4.60;99.90;;;;;;5009477;28;20042;-72
2021/11/17 09:39:13;;;;;;;7.95;5.32;;;4.60;99.90;;;;;;4980584;28;20137;-72
2021/11/17 09:41:48;;;;;;;10.07;5.97;;;4.70;99.90;;;;;;5012871;28;20125;-73
2021/11/17 09:44:29;;;;;;;7.60;5.13;;;4.70;99.90;;;;;;4997781;28;20380;-73
2021/11/17 09:47:03;;;;;;;10.88;6.68;;;4.70;99.90;;;;;;4964850;28;20074;-73
2021/11/17 09:50:02;;;;;;;8.45;5.15;;;4.70;99.90;;;;;;4996240;28;20457;-73
2021/11/17 09:52:58;;;;;;;7.55;4.70;;;4.60;99.90;;;;;;4964292;28;20140;-73
2021/11/17 09:55:35;;;;;;;8.25;4.90;;;4.60;99.90;;;;;;4997259;28;20137;-72
2021/11/17 09:58:08;;;;;;;11.95;5.15;;;4.70;99.90;;;;;;4995863;28;20070;-72
2021/11/17 10:00:59;;;;;;;6.35;4.03;;;4.70;99.90;;;;;;4979951;28;20469;-73
2021/11/17 10:03:54;;;;;;;8.93;5.43;;;4.80;99.90;;;;;;5012916;28;20137;-73
2021/11/17 10:12:51;;;;;;;10.00;4.75;;;4.80;99.90;;;;;;4997676;28;20093;-72
2021/11/17 10:15:22;;;;;;;10.20;4.82;;;4.90;99.90;;;;;;4998640;28;20097;-73
2021/11/17 10:17:57;;;;;;;7.25;4.13;;;5.00;99.90;;;;;;4977434;28;20052;-72
2021/11/17 10:20:31;;;;;;;7.63;4.40;;;5.00;99.90;;;;;;4963976;28;20569;-73
2021/11/17 10:23:06;;;;;;;9.85;4.72;;;5.10;99.90;;;;;;4978451;28;20072;-72
2021/11/17 10:25:46;;;;;;;7.82;4.30;;;5.10;99.90;;;;;;4965358;28;20469;-72
2021/11/17 10:28:19;;;;;;;8.43;4.65;;;5.10;99.90;;;;;;4980677;28;20076;-73
2021/11/17 10:31:01;;;;;;;8.32;4.65;;;5.10;99.90;;;;;;4997708;28;20050;-73
2021/11/17 10:33:43;;;;;;;7.95;4.68;;;5.10;99.90;;;;;;4997504;28;20125;-73
2021/11/17 10:36:34;;;;;;;7.90;4.63;;;5.10;99.90;;;;;;4981116;28;20080;-72
2021/11/17 10:39:09;;;;;;;8.02;4.10;;;5.10;99.90;;;;;;4980065;28;20141;-72
2021/11/17 10:41:53;;;;;;;7.50;4.47;;;5.10;99.90;;;;;;4977378;28;20065;-72
2021/11/17 10:44:39;;;;;;;7.47;4.03;;;5.10;99.90;;;;;;4964207;28;20054;-72
2021/11/17 10:47:24;;;;;;;7.82;4.57;;;5.10;99.90;;;;;;4997858;28;20121;-72
2021/11/17 10:49:54;;;;;;;9.25;4.68;;;5.10;99.90;;;;;;4992811;28;20082;-72
2021/11/17 10:52:34;;;;;;;7.05;4.32;;;5.10;99.90;;;;;;4974669;28;20038;-72
2021/11/17 10:55:17;;;;;;;8.23;3.92;;;5.20;99.90;;;;;;4961346;28;20070;-72
2021/11/17 10:57:49;;;;;;;7.68;4.72;;;5.20;99.90;;;;;;4958290;28;20050;-72
2021/11/17 11:00:20;;;;;;;6.75;3.88;;;5.20;99.90;;;;;;4989088;28;20046;-73
2021/11/17 11:02:50;;;;;;;7.75;4.43;;;5.20;99.90;;;;;;4994812;28;20050;-72
2021/11/17 11:05:25;;;;;;;8.45;4.63;;;5.20;99.90;;;;;;4994386;28;20117;-72
2021/11/17 11:08:13;;;;;;;6.72;3.90;;;5.10;99.90;;;;;;4983288;28;20479;-73
2021/11/17 11:10:44;;;;;;;6.68;4.38;;;5.10;99.90;;;;;;4976508;28;20146;-72
2021/11/17 11:13:18;;;;;;;7.25;4.45;;;5.20;99.90;;;;;;4993896;28;20109;-72
2021/11/17 11:15:54;;;;;;;8.90;4.43;;;5.10;99.90;;;;;;4976215;28;20526;-72
2021/11/17 11:18:21;;;;;;;6.50;4.45;;;5.10;99.90;;;;;;4976298;28;20089;-72
2021/11/17 11:20:55;;;;;;;7.38;4.57;;;5.10;99.90;;;;;;4960685;28;20121;-73
2021/11/17 11:23:43;;;;;;;8.30;5.03;;;5.10;99.90;;;;;;4994661;28;20048;-73
2021/11/17 11:26:19;;;;;;;8.70;5.07;;;5.00;99.90;;;;;;4961180;28;20042;-73
2021/11/17 11:28:46;;;;;;;4.90;3.75;;;5.00;99.90;;;;;;4976588;28;20084;-72
2021/11/17 11:31:13;;;;;;;5.85;3.75;;;5.00;99.90;;;;;;4976177;28;20088;-72
2021/11/17 11:33:49;;;;;;;5.80;3.25;;;5.00;99.90;;;;;;4992873;28;20527;-73
2021/11/17 11:36:22;;;;;;;5.20;3.45;;;5.00;99.90;;;;;;4976624;28;20038;-73
2021/11/17 11:38:51;;;;;;;4.50;3.25;;;4.90;99.90;;;;;;4993854;28;20035;-72
2021/11/17 11:41:29;;;;;;;4.75;3.10;;;5.00;99.90;;;;;;4972479;28;20142;-72
2021/11/17 11:44:23;;;;;;;4.43;3.42;;;4.90;99.90;;;;;;4990435;28;20038;-72
2021/11/17 11:46:57;;;;;;;4.43;2.83;;;4.90;99.90;;;;;;4997283;28;20047;-73
2021/11/17 11:49:42;;;;;;;3.83;2.88;;;4.90;99.90;;;;;;4983597;28;20114;-72
2021/11/17 11:52:20;;;;;;;4.82;3.00;;;4.90;99.90;;;;;;4990971;28;20366;-72
2021/11/17 11:54:55;;;;;;;4.78;3.28;;;4.90;99.90;;;;;;4973946;28;20043;-73
2021/11/17 11:57:33;;;;;;;5.07;3.38;;;4.90;99.90;;;;;;4957274;28;20141;-73
2021/11/17 12:00:29;;;;;;;5.13;3.63;;;4.90;99.90;;;;;;4969234;28;20133;-72
2021/11/17 12:03:04;;;;;;;6.63;3.88;;;4.90;99.90;;;;;;4992866;28;20126;-73
2021/11/17 12:05:40;;;;;;;4.03;2.92;;;4.90;99.90;;;;;;4976456;28;20050;-73
2021/11/17 12:08:41;;;;;;;4.65;3.42;;;4.90;99.90;;;;;;4991878;28;20074;-73
2021/11/17 12:11:21;;;;;;;4.38;2.60;;;5.00;99.90;;;;;;4984788;28;20062;-73
2021/11/17 12:14:07;;;;;;;4.68;3.10;;;5.00;99.90;;;;;;4993008;28;20050;-73
2021/11/17 12:16:42;;;;;;;6.60;2.80;;;5.10;99.90;;;;;;4978516;28;20066;-72
2021/11/17 12:19:12;;;;;;;3.00;2.50;;;5.10;99.90;;;;;;4967769;28;20149;-73
2021/11/17 12:21:57;;;;;;;4.00;2.50;;;5.10;99.90;;;;;;4974760;28;20126;-73
2021/11/17 12:24:34;;;;;;;3.38;1.98;;;5.10;99.90;;;;;;4984990;28;20107;-73
2021/11/17 12:27:18;;;;;;;4.13;2.20;;;5.10;99.90;;;;;;4951641;28;20053;-73
2021/11/17 12:29:57;;;;;;;3.78;2.22;;;5.20;99.90;;;;;;4966929;28;20116;-72
2021/11/17 12:32:48;;;;;;;4.47;2.40;;;5.20;99.90;;;;;;4963803;28;20073;-73
2021/11/17 12:35:18;;;;;;;4.90;3.25;;;5.20;99.90;;;;;;4969807;28;20054;-73
2021/11/17 12:38:01;;;;;;;5.65;3.63;;;5.20;99.90;;;;;;4980575;28;20042;-72
2021/11/17 12:40:44;;;;;;;4.00;2.53;;;5.20;99.90;;;;;;4970117;28;20035;-72
2021/11/17 12:43:57;;;;;;;4.15;2.88;;;5.20;99.90;;;;;;4965962;28;20037;-73
2021/11/17 12:47:07;;;;;;;6.28;2.70;;;5.20;99.90;;;;;;4940825;28;20050;-72
2021/11/17 12:49:55;;;;;;;3.80;2.75;;;5.20;99.90;;;;;;4990525;28;20042;-72
2021/11/17 12:52:39;;;;;;;4.22;3.03;;;5.20;99.90;;;;;;4990543;28;20066;-72
2021/11/17 12:55:44;;;;;;;3.80;2.70;;;5.30;99.90;;;;;;4981797;28;20081;-72
2021/11/17 12:58:41;;;;;;;3.22;2.33;;;5.30;99.90;;;;;;4937112;29;20058;-72
2021/11/17 13:01:23;;;;;;;6.43;2.88;;;5.30;99.90;;;;;;4970026;28;20108;-73
2021/11/17 13:04:13;;;;;;;5.72;4.30;;;5.30;99.90;;;;;;4966986;28;20050;-72
2021/11/17 13:06:50;;;;;;;5.07;2.70;;;5.20;99.90;;;;;;4972147;28;20132;-72
2021/11/17 13:09:54;;;;;;;3.65;2.70;;;5.20;99.90;;;;;;4968050;28;20046;-72
2021/11/17 13:12:33;;;;;;;3.83;2.58;;;5.20;99.90;;;;;;4960992;28;20043;-73
2021/11/17 13:15:05;;;;;;;3.22;2.20;;;5.20;99.90;;;;;;4960082;28;20078;-73
2021/11/17 13:17:45;;;;;;;3.38;2.47;;;5.20;99.90;;;;;;4962378;28;20101;-73
2021/11/17 13:20:37;;;;;;;3.45;2.30;;;5.20;99.90;;;;;;4974928;28;20129;-72
2021/11/17 13:23:10;;;;;;;5.88;2.72;;;5.20;99.90;;;;;;4973196;28;20046;-73
2021/11/17 13:26:14;;;;;;;7.10;4.03;;;5.20;99.90;;;;;;4977020;28;20042;-72
2021/11/17 13:28:47;;;;;;;;;;;5.20;99.90;;;;;;4992012;28;20042;-73
2021/11/17 13:31:35;;;;;;;3.40;2.70;;;5.20;99.90;;;;;;4966856;28;19926;-73
2021/11/17 13:34:29;;;;;;;4.55;2.88;;;5.20;99.90;;;;;;4954735;28;20157;-72
2021/11/17 13:37:25;;;;;;;3.55;2.80;;;5.20;99.90;;;;;;4967712;28;20509;-73
2021/11/17 13:39:59;;;;;;;2.85;2.47;;;5.20;99.90;;;;;;4990398;28;20112;-73
2021/11/17 13:42:28;;;;;;;4.57;2.40;;;5.20;99.90;;;;;;4973204;28;20444;-73
2021/11/17 13:45:00;;;;;;;4.15;2.58;;;5.10;99.90;;;;;;4991114;28;20552;-72
2021/11/17 13:47:30;;;;;;;3.28;2.42;;;5.10;99.90;;;;;;4973808;28;20461;-72
2021/11/17 13:50:06;;;;;;;4.57;2.38;;;5.10;99.90;;;;;;4973294;28;20042;-73
2021/11/17 13:52:41;;;;;;;4.97;2.97;;;5.10;99.90;;;;;;4974022;28;20052;-72
2021/11/17 13:55:18;;;;;;;3.22;2.58;;;5.00;99.90;;;;;;4974325;28;20396;-73
2021/11/17 13:57:51;;;;;;;5.32;3.45;;;5.10;99.90;;;;;;4974881;28;20062;-73
2021/11/17 14:00:24;;;;;;;4.43;2.80;;;5.10;99.90;;;;;;4989506;28;20049;-72
2021/11/17 14:02:53;;;;;;;3.92;3.00;;;5.10;99.90;;;;;;4974026;28;20117;-73
2021/11/17 14:05:25;;;;;;;3.45;2.75;;;5.00;99.90;;;;;;4990183;28;20035;-73
2021/11/17 14:07:57;;;;;;;6.15;4.03;;;5.00;99.90;;;;;;4991319;28;20142;-73
2021/11/17 14:10:32;;;;;;;4.85;3.38;;;4.90;99.90;;;;;;4974300;28;20133;-72
2021/11/17 14:13:05;;;;;;;3.83;2.92;;;4.90;99.90;;;;;;4973171;28;20061;-73
2021/11/17 14:15:33;;;;;;;4.72;3.40;;;5.00;99.90;;;;;;4990559;28;20070;-73
2021/11/17 14:18:08;;;;;;;4.25;2.88;;;5.00;99.90;;;;;;4971725;28;20408;-72
2021/11/17 14:20:36;;;;;;;5.00;2.97;;;5.00;99.90;;;;;;4981082;28;20080;-73
2021/11/17 14:23:08;;;;;;;4.78;3.03;;;5.00;99.90;;;;;;4965892;28;20050;-72
2021/11/17 14:25:36;;;;;;;8.35;3.70;;;5.00;99.90;;;;;;4991710;28;20113;-73
2021/11/17 14:28:14;;;;;;;4.07;3.03;;;5.00;99.90;;;;;;4960176;28;20041;-72
2021/11/17 14:30:45;;;;;;;4.30;3.10;;;5.00;99.90;;;;;;4991611;28;20381;-73
2021/11/17 14:33:21;;;;;;;6.88;3.78;;;5.00;99.90;;;;;;4977798;28;20089;-72
2021/11/17 14:35:54;;;;;;;4.65;3.08;;;5.10;99.90;;;;;;4976924;28;20052;-73
2021/11/17 14:38:26;;;;;;;5.72;3.72;;;5.10;99.90;;;;;;4976825;28;20047;-73
2021/11/17 14:40:58;;;;;;;4.15;3.15;;;5.10;99.90;;;;;;4976576;28;20492;-72
2021/11/17 14:43:26;;;;;;;4.85;3.53;;;5.10;99.90;;;;;;4976514;28;20145;-72
2021/11/17 14:45:58;;;;;;;7.20;3.63;;;5.10;99.90;;;;;;4977608;28;20052;-73
2021/11/17 14:48:25;;;;;;;5.07;4.03;;;5.10;99.90;;;;;;4976548;28;20289;-73
2021/11/17 14:50:57;;;;;;;4.47;3.53;;;5.10;99.90;;;;;;4992458;28;20053;-72
2021/11/17 14:53:28;;;;;;;5.43;3.85;;;5.10;99.90;;;;;;4993562;28;20492;-72
2021/11/17 14:56:00;;;;;;;7.07;3.92;;;5.10;99.90;;;;;;4992733;28;20116;-73
2021/11/17 14:58:32;;;;;;;6.30;3.65;;;5.00;99.90;;;;;;4976971;28;20129;-73
2021/11/17 15:01:08;;;;;;;3.20;2.85;;;5.10;99.90;;;;;;4960722;28;20492;-72
2021/11/17 15:03:41;;;;;;;6.15;2.78;;;5.00;99.90;;;;;;4993310;28;20049;-73
2021/11/17 15:06:10;;;;;;;5.80;3.25;;;5.00;99.90;;;;;;4960190;28;20161;-73
2021/11/17 15:08:37;;;;;;;6.03;3.65;;;5.00;99.90;;;;;;4993233;28;20043;-72
2021/11/17 15:11:09;;;;;;;3.88;3.33;;;5.00;99.90;;;;;;4992346;28;20034;-72
2021/11/17 15:13:37;;;;;;;5.43;3.80;;;4.90;99.90;;;;;;4993044;28;20042;-72
2021/11/17 15:16:10;;;;;;;3.88;2.80;;;5.00;99.90;;;;;;4993041;28;20516;-73
2021/11/17 15:18:40;;;;;;;5.22;3.30;;;5.00;99.90;;;;;;4975698;28;20133;-73
2021/11/17 15:21:07;;;;;;;5.30;3.55;;;5.00;99.90;;;;;;4992254;28;20137;-73
2021/11/17 15:23:34;;;;;;;4.95;3.25;;;4.90;99.90;;;;;;4991970;28;20042;-73
2021/11/17 15:26:06;;;;;;;3.28;2.70;;;4.90;99.90;;;;;;4992259;28;20141;-73
2021/11/17 15:28:46;;;;;;;9.90;4.68;;;4.90;99.90;;;;;;4975656;28;20140;-72
2021/11/17 15:31:22;;;;;;;4.35;2.90;;;4.90;99.90;;;;;;4975855;28;20473;-71
2021/11/17 15:33:49;;;;;;;4.43;3.28;;;4.90;99.90;;;;;;4992340;28;20129;-72
2021/11/17 15:36:24;;;;;;;5.45;3.88;;;4.90;99.90;;;;;;4992069;28;20057;-72
2021/11/17 15:38:55;;;;;;;7.07;5.57;;;4.90;99.90;;;;;;4991497;28;20046;-73
2021/11/17 15:41:28;;;;;;;5.32;3.58;;;4.90;99.90;;;;;;4992022;28;20468;-72
2021/11/17 15:44:00;;;;;;;4.35;3.40;;;4.90;99.90;;;;;;4976374;28;20043;-72
2021/11/17 15:46:33;;;;;;;6.88;3.42;;;4.90;99.90;;;;;;4975667;28;20133;-72
2021/11/17 15:49:05;;;;;;;8.73;3.50;;;4.90;99.90;;;;;;4991627;28;20137;-72
2021/11/17 15:51:37;;;;;;;4.88;3.15;;;4.90;99.90;;;;;;4993206;28;20160;-72
2021/11/17 15:54:09;;;;;;;4.40;3.10;;;4.90;99.90;;;;;;4991555;28;20137;-72
2021/11/17 15:56:41;;;;;;;4.22;3.33;;;4.90;99.90;;;;;;4991985;28;20046;-72
2021/11/17 15:59:15;;;;;;;4.18;3.15;;;4.90;99.90;;;;;;4974800;28;20048;-72
2021/11/17 16:01:44;;;;;;;7.00;3.95;;;4.90;99.90;;;;;;4993025;28;20120;-72
2021/11/17 16:04:11;;;;;;;5.68;4.03;;;4.90;99.90;;;;;;4975170;28;20149;-72
2021/11/17 16:07:02;;;;;;;8.05;4.53;;;4.90;99.90;;;;;;4992838;28;20113;-72
2021/11/17 16:09:37;;;;;;;5.97;4.43;;;4.90;99.90;;;;;;4976411;28;20129;-72
2021/11/17 16:12:10;;;;;;;7.47;5.30;;;4.90;99.90;;;;;;4975437;28;20049;-72
2021/11/17 16:14:42;;;;;;;5.88;4.03;;;4.90;99.90;;;;;;4971625;28;20145;-71
2021/11/17 16:17:14;;;;;;;5.18;3.92;;;4.90;99.90;;;;;;4955982;28;20043;-72
2021/11/17 16:19:46;;;;;;;5.68;3.65;;;4.90;99.90;;;;;;4972631;28;20070;-73
2021/11/17 16:22:32;;;;;;;4.88;3.40;;;4.90;99.90;;;;;;4955468;28;20110;-72
2021/11/17 16:28:05;;;;;;;5.30;3.78;;;4.90;99.90;;;;;;4971785;28;20134;-72
2021/11/17 16:30:38;;;;;;;6.88;3.85;;;4.80;99.90;;;;;;4955010;28;20047;-71